createdAt,value
2022-10-19T00:01:05.734Z,6.63
2022-10-19T00:03:34.380Z,6.62
2022-10-19T00:06:13.549Z,6.63
2022-10-19T00:08:40.361Z,6.59
2022-10-19T00:11:07.470Z,6.57
2022-10-19T00:13:35.172Z,6.43
2022-10-19T00:16:09.221Z,6.21
2022-10-19T00:18:39.197Z,6.03
2022-10-19T00:21:07.528Z,5.98
2022-10-19T00:23:35.010Z,5.87
2022-10-19T00:26:02.067Z,5.84
2022-10-19T00:28:29.355Z,5.81
2022-10-19T00:30:56.555Z,5.88
2022-10-19T00:33:23.630Z,5.82
2022-10-19T00:35:52.197Z,5.81
2022-10-19T00:38:20.764Z,5.79
2022-10-19T00:40:48.940Z,5.73
2022-10-19T00:43:22.493Z,5.64
2022-10-19T00:45:50.434Z,5.56
2022-10-19T00:48:25.228Z,5.56
2022-10-19T00:50:55.542Z,5.57
2022-10-19T00:53:25.986Z,5.55
2022-10-19T00:55:53.646Z,5.55
2022-10-19T00:58:20.588Z,5.59
2022-10-19T01:00:47.481Z,5.57
2022-10-19T01:03:14.310Z,5.59
2022-10-19T01:05:41.058Z,5.64
2022-10-19T01:08:09.248Z,5.62
2022-10-19T01:11:13.736Z,5.63
2022-10-19T01:14:03.489Z,5.66
2022-10-19T01:16:49.722Z,5.68
2022-10-19T01:19:35.101Z,5.70
2022-10-19T01:22:26.543Z,5.71
2022-10-19T01:24:58.927Z,5.72
2022-10-19T01:27:47.425Z,5.72
2022-10-19T01:30:26.463Z,5.60
2022-10-19T01:33:07.558Z,5.46
2022-10-19T01:36:09.784Z,5.34
2022-10-19T01:38:55.869Z,5.25
2022-10-19T01:41:45.435Z,5.23
2022-10-19T01:44:15.017Z,5.23
2022-10-19T01:46:47.518Z,5.14
2022-10-19T01:49:28.793Z,5.13
2022-10-19T01:52:03.019Z,5.13
2022-10-19T01:54:37.412Z,5.09
2022-10-19T01:57:08.066Z,5.04
2022-10-19T01:59:36.911Z,5.04
2022-10-19T02:02:08.426Z,5.04
2022-10-19T02:04:36.256Z,5.09
2022-10-19T02:07:05.371Z,5.10
2022-10-19T02:09:32.630Z,5.08
2022-10-19T02:12:03.317Z,5.06
2022-10-19T02:14:36.827Z,5.04
2022-10-19T02:17:17.611Z,5.02
2022-10-19T02:19:44.604Z,4.97
2022-10-19T02:22:12.613Z,4.93
2022-10-19T02:24:39.429Z,4.88
2022-10-19T02:27:07.807Z,4.86
2022-10-19T02:29:37.325Z,4.89
2022-10-19T02:32:04.851Z,4.95
2022-10-19T02:34:32.577Z,4.98
2022-10-19T02:36:59.518Z,4.96
2022-10-19T02:39:26.342Z,4.93
2022-10-19T02:42:05.275Z,4.87
2022-10-19T02:44:40.307Z,4.83
2022-10-19T02:47:19.700Z,4.78
2022-10-19T02:49:48.342Z,4.78
2022-10-19T02:52:14.994Z,4.76
2022-10-19T02:54:44.030Z,4.75
2022-10-19T02:57:19.828Z,4.77
2022-10-19T02:59:46.713Z,4.85
2022-10-19T03:02:15.064Z,4.91
2022-10-19T03:04:43.594Z,4.97
2022-10-19T03:07:12.231Z,4.96
2022-10-19T03:09:38.852Z,4.85
2022-10-19T03:12:05.718Z,4.76
2022-10-19T03:14:32.586Z,4.68
2022-10-19T03:16:59.432Z,4.58
2022-10-19T03:19:26.145Z,4.50
2022-10-19T03:21:52.816Z,4.43
2022-10-19T03:24:19.572Z,4.42
2022-10-19T03:26:46.451Z,4.41
2022-10-19T03:29:13.125Z,4.41
2022-10-19T03:31:40.030Z,4.42
2022-10-19T03:34:06.730Z,4.41
2022-10-19T03:36:36.374Z,4.43
2022-10-19T03:39:11.182Z,4.44
2022-10-19T03:41:39.129Z,4.45
2022-10-19T03:44:07.465Z,4.42
2022-10-19T03:46:35.079Z,4.42
2022-10-19T03:49:02.736Z,4.43
2022-10-19T03:51:30.710Z,4.39
2022-10-19T03:54:00.528Z,4.41
2022-10-19T03:56:29.472Z,4.31
2022-10-19T03:58:58.277Z,4.23
2022-10-19T04:01:30.977Z,4.20
2022-10-19T04:04:03.641Z,4.20
2022-10-19T04:06:36.027Z,4.20
2022-10-19T04:09:04.894Z,4.21
2022-10-19T04:11:33.365Z,4.20
2022-10-19T04:14:00.888Z,4.19
2022-10-19T04:16:29.717Z,4.14
2022-10-19T04:18:57.083Z,4.11
2022-10-19T04:21:25.381Z,4.06
2022-10-19T04:23:57.173Z,4.09
2022-10-19T04:26:23.997Z,4.15
2022-10-19T04:28:50.757Z,4.18
2022-10-19T04:31:17.551Z,4.18
2022-10-19T04:36:17.327Z,4.28
2022-10-19T04:38:44.003Z,4.32
2022-10-19T04:41:15.874Z,4.38
2022-10-19T04:43:44.690Z,4.39
2022-10-19T04:46:14.517Z,4.41
2022-10-19T04:48:42.588Z,4.45
2022-10-19T04:51:10.057Z,4.47
2022-10-19T04:53:40.766Z,4.51
2022-10-19T04:56:13.026Z,4.56
2022-10-19T04:58:39.915Z,4.59
2022-10-19T05:01:12.917Z,4.54
2022-10-19T05:03:40.928Z,4.54
2022-10-19T05:06:12.682Z,4.67
2022-10-19T05:09:40.419Z,4.97
2022-10-19T05:12:48.694Z,5.45
2022-10-19T05:15:46.447Z,5.91
2022-10-19T05:18:24.353Z,6.37
2022-10-19T05:20:52.513Z,6.73
2022-10-19T05:23:27.920Z,6.98
2022-10-19T05:26:11.495Z,7.17
2022-10-19T05:29:10.895Z,7.46
2022-10-19T05:31:40.851Z,7.94
2022-10-19T05:34:13.977Z,8.31
2022-10-19T05:36:42.145Z,8.71
2022-10-19T05:39:21.048Z,8.95
2022-10-19T08:36:43.266Z,20.04
2022-10-19T08:39:23.268Z,20.30
2022-10-19T08:42:38.624Z,20.58
2022-10-19T09:00:21.480Z,21.20
2022-10-19T09:03:54.938Z,20.80
2022-10-19T09:07:00.016Z,20.47
2022-10-19T09:09:59.266Z,20.13
2022-10-19T09:13:12.586Z,20.01
2022-10-19T09:16:12.304Z,19.67
2022-10-19T09:19:02.357Z,19.58
2022-10-19T09:22:14.554Z,19.45
2022-10-19T09:24:56.227Z,19.26
2022-10-19T09:27:31.518Z,19.07
2022-10-19T09:30:28.084Z,18.91
2022-10-19T09:33:05.729Z,18.75
2022-10-19T09:35:38.771Z,18.71
2022-10-19T09:38:08.655Z,18.71
2022-10-19T09:40:50.807Z,18.77
2022-10-19T09:43:23.304Z,18.80
2022-10-19T09:46:18.558Z,18.82
2022-10-19T09:48:58.781Z,19.02
2022-10-19T09:51:26.632Z,19.15
2022-10-19T09:53:57.171Z,19.29
2022-10-19T09:56:27.114Z,19.34
2022-10-19T09:58:58.709Z,19.46
2022-10-19T10:01:43.849Z,19.44
2022-10-19T10:04:19.955Z,19.27
2022-10-19T10:06:57.685Z,19.22
2022-10-19T10:09:45.175Z,19.36
2022-10-19T10:12:18.333Z,19.62
2022-10-19T10:14:50.870Z,19.60
2022-10-19T10:17:27.793Z,19.71
2022-10-19T10:20:29.315Z,19.88
2022-10-19T10:23:03.717Z,19.80
2022-10-19T10:25:34.078Z,19.65
2022-10-19T10:28:16.542Z,19.56
2022-10-19T10:30:47.194Z,19.45
2022-10-19T10:33:40.403Z,19.39
2022-10-19T10:36:12.678Z,19.28
2022-10-19T10:38:51.111Z,19.11
2022-10-19T10:41:23.719Z,18.89
2022-10-19T10:44:06.444Z,18.66
2022-10-19T10:46:58.102Z,18.54
2022-10-19T10:49:34.350Z,18.42
2022-10-19T10:52:10.134Z,18.42
2022-10-19T10:54:38.249Z,18.39
2022-10-19T10:57:16.234Z,18.42
2022-10-19T11:00:01.947Z,18.33
2022-10-19T11:03:03.098Z,18.14
2022-10-19T11:05:36.047Z,18.06
2022-10-19T11:08:18.986Z,18.02
2022-10-19T11:11:19.415Z,17.93
2022-10-19T11:13:58.524Z,17.93
2022-10-19T11:16:32.295Z,17.95
2022-10-19T11:19:25.248Z,17.86
2022-10-19T11:22:22.441Z,17.71
2022-10-19T11:25:20.300Z,17.59
2022-10-19T11:27:50.806Z,17.51
2022-10-19T11:30:42.814Z,17.52
2022-10-19T11:33:38.492Z,17.65
2022-10-19T11:36:46.429Z,17.66
2022-10-19T11:39:48.359Z,17.49
2022-10-19T11:42:35.069Z,17.35
2022-10-19T11:45:14.790Z,17.26
2022-10-19T11:48:01.933Z,17.19
2022-10-19T11:51:16.805Z,17.14
2022-10-19T11:54:14.632Z,17.12
2022-10-19T11:57:04.772Z,17.11
2022-10-19T11:59:39.322Z,17.09
2022-10-19T12:02:11.678Z,17.06
2022-10-19T12:05:17.000Z,17.05
2022-10-19T12:08:14.075Z,17.06
2022-10-19T12:10:55.207Z,17.08
2022-10-19T12:13:29.629Z,17.08
2022-10-19T12:15:59.139Z,17.10
2022-10-19T12:18:42.569Z,17.11
2022-10-19T12:21:29.389Z,17.13
2022-10-19T12:24:03.540Z,17.05
2022-10-19T12:26:35.403Z,17.01
2022-10-19T12:29:12.526Z,16.92
2022-10-19T12:31:39.831Z,16.84
2022-10-19T12:34:59.744Z,16.71
2022-10-19T12:37:40.487Z,16.62
2022-10-19T12:40:23.747Z,16.59
2022-10-19T12:43:03.133Z,16.53
2022-10-19T12:45:36.438Z,16.47
2022-10-19T12:48:13.592Z,16.42
2022-10-19T12:50:49.578Z,16.42
2022-10-19T12:53:23.610Z,16.39
2022-10-19T12:56:09.048Z,16.32
2022-10-19T12:58:46.597Z,16.27
2022-10-19T13:01:26.490Z,16.23
2022-10-19T13:04:15.897Z,16.23
2022-10-19T13:06:46.207Z,16.19
2022-10-19T13:09:36.613Z,16.13
2022-10-19T13:12:19.565Z,16.03
2022-10-19T13:15:00.496Z,15.94
2022-10-19T13:17:51.682Z,15.83
2022-10-19T13:20:18.462Z,15.75
2022-10-19T13:23:08.000Z,15.70
2022-10-19T13:25:36.593Z,15.67
2022-10-19T13:28:06.029Z,15.59
2022-10-19T13:30:38.811Z,15.52
2022-10-19T13:33:24.284Z,15.48
2022-10-19T13:36:01.679Z,15.35
2022-10-19T13:38:40.544Z,15.11
2022-10-19T13:41:24.930Z,14.98
2022-10-19T13:43:56.407Z,14.93
2022-10-19T13:46:26.230Z,14.86
2022-10-19T13:49:08.482Z,14.78
2022-10-19T13:51:37.619Z,14.76
2022-10-19T13:54:25.126Z,14.64
2022-10-19T13:56:54.842Z,14.62
2022-10-19T13:59:30.569Z,14.56
2022-10-19T14:02:32.386Z,14.50
2022-10-19T14:05:24.379Z,14.42
2022-10-19T14:08:18.574Z,14.38
2022-10-19T14:11:01.156Z,14.37
2022-10-19T14:13:29.232Z,14.39
2022-10-19T14:15:59.985Z,14.38
2022-10-19T14:18:37.807Z,14.36
2022-10-19T14:21:08.250Z,14.36
2022-10-19T14:23:39.519Z,14.37
2022-10-19T14:26:21.293Z,14.38
2022-10-19T14:28:54.641Z,14.41
2022-10-19T14:31:25.455Z,14.42
2022-10-19T14:34:00.876Z,14.41
2022-10-19T14:36:33.918Z,14.42
2022-10-19T14:39:01.504Z,14.45
2022-10-19T14:41:30.611Z,14.48
2022-10-19T14:43:58.922Z,14.48
2022-10-19T14:46:29.938Z,14.48
2022-10-19T14:49:07.025Z,14.42
2022-10-19T14:51:41.783Z,14.32
2022-10-19T14:54:24.659Z,14.26
2022-10-19T14:57:03.410Z,14.19
2022-10-19T14:59:45.828Z,14.14
2022-10-19T15:02:37.285Z,14.06
2022-10-19T15:05:06.064Z,13.94
2022-10-19T15:07:38.399Z,13.85
2022-10-19T15:10:16.343Z,13.74
2022-10-19T15:12:44.140Z,13.64
2022-10-19T15:15:17.383Z,13.53
2022-10-19T15:18:06.767Z,13.43
2022-10-19T15:20:49.433Z,13.33
2022-10-19T15:23:39.383Z,13.26
2022-10-19T15:26:17.204Z,13.21
2022-10-19T15:28:45.582Z,13.18
2022-10-19T15:31:26.165Z,13.16
2022-10-19T15:34:03.151Z,13.13
2022-10-19T15:36:32.266Z,13.13
2022-10-19T15:39:24.606Z,13.11
2022-10-19T15:41:52.656Z,13.05
2022-10-19T15:44:48.642Z,13.01
2022-10-19T15:47:15.586Z,12.93
2022-10-19T15:49:42.284Z,12.90
2022-10-19T15:52:16.675Z,12.87
2022-10-19T15:54:46.391Z,12.84
2022-10-19T15:57:25.467Z,12.80
2022-10-19T15:59:53.939Z,12.78
2022-10-19T16:02:20.810Z,12.78
2022-10-19T16:04:47.663Z,12.79
2022-10-19T16:07:19.190Z,12.79
2022-10-19T16:09:45.951Z,12.79
2022-10-19T16:12:12.791Z,12.82
2022-10-19T16:14:39.451Z,12.88
2022-10-19T16:17:06.232Z,12.93
2022-10-19T16:19:32.996Z,12.96
2022-10-19T16:21:59.967Z,12.98
2022-10-19T16:24:26.669Z,12.99
2022-10-19T16:26:53.391Z,12.97
2022-10-19T16:29:20.045Z,12.94
2022-10-19T16:31:46.850Z,12.89
2022-10-19T16:34:13.551Z,12.84
2022-10-19T16:36:40.358Z,12.82
2022-10-19T16:39:07.138Z,12.84
2022-10-19T16:41:34.054Z,12.83
2022-10-19T16:44:00.838Z,12.82
2022-10-19T16:46:27.699Z,12.84
2022-10-19T16:48:54.594Z,12.83
2022-10-19T16:51:34.962Z,12.82
2022-10-19T16:54:04.086Z,12.82
2022-10-19T16:56:31.628Z,12.80
2022-10-19T16:59:04.524Z,12.79
2022-10-19T17:01:33.017Z,12.76
2022-10-19T17:04:00.306Z,12.73
2022-10-19T17:06:27.886Z,12.66
2022-10-19T17:11:43.881Z,12.57
2022-10-19T17:14:12.242Z,12.54
2022-10-19T17:16:39.689Z,12.52
2022-10-19T17:19:08.438Z,12.49
2022-10-19T17:21:38.113Z,12.50
2022-10-19T17:24:07.182Z,12.47
2022-10-19T17:26:35.267Z,12.44
2022-10-19T17:29:02.358Z,12.40
2022-10-19T17:31:30.082Z,12.37
2022-10-19T17:33:56.847Z,12.33
2022-10-19T17:36:27.563Z,12.28
2022-10-19T17:38:56.230Z,12.25
2022-10-19T17:41:23.451Z,12.23
2022-10-19T17:43:51.308Z,12.22
2022-10-19T17:46:24.091Z,12.20
2022-10-19T17:48:51.488Z,12.18
2022-10-19T17:51:20.887Z,12.16
2022-10-19T17:53:48.137Z,12.15
2022-10-19T17:56:18.126Z,12.15
2022-10-19T17:58:45.300Z,12.15
2022-10-19T18:01:15.423Z,12.20
2022-10-19T18:03:42.338Z,12.21
2022-10-19T18:06:17.630Z,12.19
2022-10-19T18:08:47.182Z,12.18
2022-10-19T18:11:16.925Z,12.15
2022-10-19T18:13:43.928Z,12.11
2022-10-19T18:16:14.568Z,12.07
2022-10-19T18:18:45.209Z,12.01
2022-10-19T18:21:13.865Z,11.96
2022-10-19T18:23:41.220Z,11.90
2022-10-19T18:26:10.944Z,11.82
2022-10-19T18:28:37.970Z,11.78
2022-10-19T18:31:09.369Z,11.75
2022-10-19T18:33:37.563Z,11.75
2022-10-19T18:36:08.815Z,11.75
2022-10-19T18:38:36.240Z,11.73
2022-10-19T18:41:08.244Z,11.71
2022-10-19T18:43:34.973Z,11.71
2022-10-19T18:46:01.805Z,11.69
2022-10-19T18:48:29.744Z,11.64
2022-10-19T18:50:57.474Z,11.63
2022-10-19T18:53:24.773Z,11.61
2022-10-19T18:56:05.925Z,11.59
2022-10-19T18:58:33.757Z,11.56
2022-10-19T19:01:30.940Z,11.54
2022-10-19T19:04:06.032Z,11.47
2022-10-19T19:06:35.519Z,11.43
2022-10-19T19:09:05.999Z,11.38
2022-10-19T19:11:36.857Z,11.34
2022-10-19T19:14:11.994Z,11.28
2022-10-19T19:16:40.405Z,11.26
2022-10-19T19:19:08.297Z,11.23
2022-10-19T19:21:35.998Z,11.20
2022-10-19T19:24:05.481Z,11.17
2022-10-19T19:26:36.521Z,11.13
2022-10-19T19:29:04.035Z,11.13
2022-10-19T19:31:31.101Z,11.13
2022-10-19T19:34:05.273Z,11.15
2022-10-19T19:36:32.010Z,11.14
2022-10-19T19:38:59.116Z,11.12
2022-10-19T19:41:27.131Z,11.12
2022-10-19T19:43:57.017Z,11.14
2022-10-19T19:46:23.924Z,11.14
2022-10-19T19:48:50.608Z,11.13
2022-10-19T19:51:19.387Z,11.10
2022-10-19T19:53:47.820Z,11.07
2022-10-19T19:56:16.434Z,11.05
2022-10-19T19:58:44.868Z,11.04
2022-10-19T20:01:14.689Z,11.03
2022-10-19T20:03:42.078Z,11.01
2022-10-19T20:06:09.766Z,11.02
2022-10-19T20:08:37.813Z,11.02
2022-10-19T20:11:10.925Z,11.01
2022-10-19T20:13:38.846Z,11.00
2022-10-19T20:16:11.944Z,10.96
2022-10-19T20:18:40.255Z,10.92
2022-10-19T20:21:07.023Z,10.90
2022-10-19T20:23:34.316Z,10.87
2022-10-19T20:26:01.610Z,10.84
2022-10-19T20:28:31.218Z,10.84
2022-10-19T20:31:06.430Z,10.83
2022-10-19T20:33:35.792Z,10.81
2022-10-19T20:36:23.908Z,10.78
2022-10-19T20:38:55.863Z,10.74
2022-10-19T20:41:24.903Z,10.68
2022-10-19T20:43:53.338Z,10.65
2022-10-19T20:46:26.380Z,10.64
2022-10-19T20:48:55.764Z,10.62
2022-10-19T20:51:28.998Z,10.59
2022-10-19T20:54:01.136Z,10.57
2022-10-19T20:56:31.102Z,10.56
2022-10-19T20:59:00.705Z,10.54
2022-10-19T21:01:29.894Z,10.54
2022-10-19T21:04:00.359Z,10.52
2022-10-19T21:06:29.224Z,10.48
2022-10-19T21:08:56.949Z,10.48
2022-10-19T21:11:32.495Z,10.47
2022-10-19T21:14:01.729Z,10.44
2022-10-19T21:16:29.690Z,10.35
2022-10-19T21:18:57.555Z,10.32
2022-10-19T21:21:27.366Z,10.25
2022-10-19T21:23:57.066Z,10.18
2022-10-19T21:26:28.422Z,10.12
2022-10-19T21:28:55.607Z,10.08
2022-10-19T21:31:23.910Z,10.03
2022-10-19T21:33:51.452Z,9.99
2022-10-19T21:36:20.299Z,9.95
2022-10-19T21:38:47.547Z,9.87
2022-10-19T21:41:18.053Z,9.80
2022-10-19T21:43:46.498Z,9.73
2022-10-19T21:46:16.099Z,9.68
2022-10-19T21:48:43.324Z,9.64
2022-10-19T21:51:15.960Z,9.60
2022-10-19T21:53:43.405Z,9.57
2022-10-19T21:56:10.158Z,9.52
2022-10-19T21:58:36.848Z,9.46
2022-10-19T22:01:05.107Z,9.40
2022-10-19T22:03:31.840Z,9.34
2022-10-19T22:05:59.035Z,9.26
2022-10-19T22:08:26.389Z,9.17
2022-10-19T22:10:53.136Z,9.09
2022-10-19T22:13:19.867Z,9.07
2022-10-19T22:15:46.550Z,9.03
2022-10-19T22:18:13.229Z,9.00
2022-10-19T22:20:40.060Z,8.96
2022-10-19T22:23:07.691Z,8.93
2022-10-19T22:25:34.995Z,8.87
2022-10-19T22:28:01.923Z,8.79
2022-10-19T22:30:28.955Z,8.65
2022-10-19T22:32:55.547Z,8.61
2022-10-19T22:35:22.135Z,8.55
2022-10-19T22:37:48.712Z,8.49
2022-10-19T22:40:15.276Z,8.43
2022-10-19T22:42:41.890Z,8.36
2022-10-19T22:45:08.636Z,8.34
2022-10-19T22:47:35.206Z,8.33
2022-10-19T22:50:01.925Z,8.30
2022-10-19T22:52:28.916Z,8.24
2022-10-19T22:54:55.814Z,8.23
2022-10-19T22:57:22.550Z,8.22
2022-10-19T22:59:49.681Z,8.18
2022-10-19T23:02:16.437Z,8.19
2022-10-19T23:04:43.135Z,8.19
2022-10-19T23:09:41.086Z,8.16
2022-10-19T23:12:07.646Z,8.17
2022-10-19T23:14:34.294Z,8.14
2022-10-19T23:17:00.841Z,8.17
2022-10-19T23:19:27.354Z,8.13
2022-10-19T23:21:54.051Z,8.14
2022-10-19T23:24:20.887Z,8.14
2022-10-19T23:26:47.506Z,8.11
2022-10-19T23:29:14.581Z,8.04
2022-10-19T23:31:41.167Z,7.97
2022-10-19T23:34:07.804Z,7.93
2022-10-19T23:36:34.400Z,7.85
2022-10-19T23:39:00.975Z,7.80
2022-10-19T23:41:27.601Z,7.78
2022-10-19T23:43:54.379Z,7.75
2022-10-19T23:46:21.006Z,7.70
2022-10-19T23:48:47.682Z,7.72
2022-10-19T23:51:17.484Z,7.72
2022-10-19T23:53:47.391Z,7.67
2022-10-19T23:56:19.460Z,7.68
2022-10-19T23:58:46.417Z,7.64
